sensor_id;sensor_type;location;lat;lon;timestamp;P1;durP1;ratioP1;P2;durP2;ratioP2
4011;SDS011;2020;48.682;9.024;2022-12-18T00:01:22;35.57;;;21.30;;
4011;SDS011;2020;48.682;9.024;2022-12-18T00:03:49;42.57;;;24.27;;
4011;SDS011;2020;48.682;9.024;2022-12-18T00:06:16;47.33;;;25.20;;
4011;SDS011;2020;48.682;9.024;2022-12-18T00:08:42;68.40;;;30.37;;
4011;SDS011;2020;48.682;9.024;2022-12-18T00:11:08;56.53;;;27.20;;
4011;SDS011;2020;48.682;9.024;2022-12-18T00:13:36;39.80;;;23.50;;
4011;SDS011;2020;48.682;9.024;2022-12-18T00:16:03;41.27;;;22.33;;
4011;SDS011;2020;48.682;9.024;2022-12-18T00:18:33;49.90;;;23.77;;
4011;SDS011;2020;48.682;9.024;2022-12-18T00:20:59;43.07;;;22.37;;
4011;SDS011;2020;48.682;9.024;2022-12-18T00:23:26;52.33;;;25.33;;
4011;SDS011;2020;48.682;9.024;2022-12-18T00:25:52;38.17;;;23.63;;
4011;SDS011;2020;48.682;9.024;2022-12-18T00:28:17;33.20;;;20.60;;
4011;SDS011;2020;48.682;9.024;2022-12-18T00:30:42;27.80;;;17.53;;
4011;SDS011;2020;48.682;9.024;2022-12-18T00:33:08;28.83;;;17.77;;
4011;SDS011;2020;48.682;9.024;2022-12-18T00:35:33;34.73;;;18.37;;
4011;SDS011;2020;48.682;9.024;2022-12-18T00:37:58;36.30;;;18.00;;
4011;SDS011;2020;48.682;9.024;2022-12-18T00:40:23;22.57;;;15.20;;
4011;SDS011;2020;48.682;9.024;2022-12-18T00:42:49;29.50;;;16.87;;
4011;SDS011;2020;48.682;9.024;2022-12-18T00:45:24;29.13;;;15.80;;
4011;SDS011;2020;48.682;9.024;2022-12-18T00:47:51;30.77;;;16.70;;
4011;SDS011;2020;48.682;9.024;2022-12-18T00:50:16;38.80;;;17.47;;
4011;SDS011;2020;48.682;9.024;2022-12-18T00:52:42;32.70;;;18.33;;
4011;SDS011;2020;48.682;9.024;2022-12-18T00:55:07;31.97;;;16.30;;
4011;SDS011;2020;48.682;9.024;2022-12-18T00:57:33;34.70;;;17.77;;
4011;SDS011;2020;48.682;9.024;2022-12-18T00:59:58;27.97;;;16.40;;
4011;SDS011;2020;48.682;9.024;2022-12-18T01:02:23;34.40;;;16.77;;
4011;SDS011;2020;48.682;9.024;2022-12-18T01:04:48;38.37;;;16.93;;
4011;SDS011;2020;48.682;9.024;2022-12-18T01:07:14;29.80;;;16.63;;
4011;SDS011;2020;48.682;9.024;2022-12-18T01:09:39;26.57;;;16.60;;
4011;SDS011;2020;48.682;9.024;2022-12-18T01:12:04;31.90;;;15.80;;
4011;SDS011;2020;48.682;9.024;2022-12-18T01:14:30;26.60;;;16.60;;
4011;SDS011;2020;48.682;9.024;2022-12-18T01:16:55;29.57;;;16.00;;
4011;SDS011;2020;48.682;9.024;2022-12-18T01:19:21;32.80;;;17.77;;
4011;SDS011;2020;48.682;9.024;2022-12-18T01:21:46;31.17;;;15.77;;
4011;SDS011;2020;48.682;9.024;2022-12-18T01:24:11;29.20;;;16.27;;
4011;SDS011;2020;48.682;9.024;2022-12-18T01:26:37;20.90;;;15.10;;
4011;SDS011;2020;48.682;9.024;2022-12-18T01:29:02;29.87;;;15.93;;
4011;SDS011;2020;48.682;9.024;2022-12-18T01:31:28;25.20;;;15.13;;
4011;SDS011;2020;48.682;9.024;2022-12-18T01:33:56;30.33;;;16.90;;
4011;SDS011;2020;48.682;9.024;2022-12-18T01:36:23;36.60;;;19.37;;
4011;SDS011;2020;48.682;9.024;2022-12-18T01:38:50;32.43;;;18.83;;
4011;SDS011;2020;48.682;9.024;2022-12-18T01:41:17;31.67;;;18.00;;
4011;SDS011;2020;48.682;9.024;2022-12-18T01:46:15;39.70;;;19.70;;
4011;SDS011;2020;48.682;9.024;2022-12-18T01:48:44;26.37;;;15.17;;
4011;SDS011;2020;48.682;9.024;2022-12-18T01:51:13;31.70;;;16.93;;
4011;SDS011;2020;48.682;9.024;2022-12-18T01:53:40;30.67;;;17.23;;
4011;SDS011;2020;48.682;9.024;2022-12-18T01:56:08;30.10;;;17.20;;
4011;SDS011;2020;48.682;9.024;2022-12-18T01:58:40;23.77;;;16.60;;
4011;SDS011;2020;48.682;9.024;2022-12-18T02:01:11;27.10;;;15.67;;
4011;SDS011;2020;48.682;9.024;2022-12-18T02:03:36;26.47;;;17.63;;
4011;SDS011;2020;48.682;9.024;2022-12-18T02:06:06;21.77;;;15.70;;
4011;SDS011;2020;48.682;9.024;2022-12-18T02:08:48;30.60;;;17.70;;
4011;SDS011;2020;48.682;9.024;2022-12-18T02:11:27;33.77;;;16.87;;
4011;SDS011;2020;48.682;9.024;2022-12-18T02:16:44;23.77;;;14.73;;
4011;SDS011;2020;48.682;9.024;2022-12-18T02:24:53;24.50;;;14.20;;
4011;SDS011;2020;48.682;9.024;2022-12-18T02:27:24;28.53;;;16.40;;
4011;SDS011;2020;48.682;9.024;2022-12-18T02:29:50;28.03;;;14.83;;
4011;SDS011;2020;48.682;9.024;2022-12-18T02:32:22;31.87;;;16.43;;
4011;SDS011;2020;48.682;9.024;2022-12-18T02:34:52;28.87;;;15.77;;
4011;SDS011;2020;48.682;9.024;2022-12-18T02:37:21;28.47;;;14.87;;
4011;SDS011;2020;48.682;9.024;2022-12-18T02:39:48;25.70;;;16.23;;
4011;SDS011;2020;48.682;9.024;2022-12-18T02:42:16;33.17;;;17.27;;
4011;SDS011;2020;48.682;9.024;2022-12-18T02:44:50;29.47;;;18.73;;
4011;SDS011;2020;48.682;9.024;2022-12-18T02:47:17;30.03;;;19.33;;
4011;SDS011;2020;48.682;9.024;2022-12-18T02:55:39;29.33;;;15.57;;
4011;SDS011;2020;48.682;9.024;2022-12-18T02:58:20;26.97;;;14.93;;
4011;SDS011;2020;48.682;9.024;2022-12-18T03:03:42;28.30;;;15.83;;
4011;SDS011;2020;48.682;9.024;2022-12-18T03:06:15;34.77;;;15.73;;
4011;SDS011;2020;48.682;9.024;2022-12-18T03:08:49;16.80;;;13.57;;
4011;SDS011;2020;48.682;9.024;2022-12-18T03:11:19;23.80;;;13.47;;
4011;SDS011;2020;48.682;9.024;2022-12-18T03:14:04;23.40;;;13.77;;
4011;SDS011;2020;48.682;9.024;2022-12-18T03:16:32;28.57;;;14.17;;
4011;SDS011;2020;48.682;9.024;2022-12-18T03:19:01;30.33;;;16.20;;
4011;SDS011;2020;48.682;9.024;2022-12-18T03:21:37;28.67;;;14.77;;
4011;SDS011;2020;48.682;9.024;2022-12-18T03:24:07;23.87;;;14.17;;
4011;SDS011;2020;48.682;9.024;2022-12-18T03:26:34;30.43;;;15.10;;
4011;SDS011;2020;48.682;9.024;2022-12-18T03:29:26;27.00;;;14.47;;
4011;SDS011;2020;48.682;9.024;2022-12-18T03:31:54;24.83;;;13.97;;
4011;SDS011;2020;48.682;9.024;2022-12-18T03:34:32;25.33;;;15.03;;
4011;SDS011;2020;48.682;9.024;2022-12-18T03:37:00;23.10;;;14.60;;
4011;SDS011;2020;48.682;9.024;2022-12-18T03:39:26;20.73;;;12.57;;
4011;SDS011;2020;48.682;9.024;2022-12-18T03:50:18;24.57;;;15.30;;
4011;SDS011;2020;48.682;9.024;2022-12-18T03:55:29;21.33;;;12.00;;
4011;SDS011;2020;48.682;9.024;2022-12-18T03:57:58;21.47;;;14.00;;
4011;SDS011;2020;48.682;9.024;2022-12-18T04:00:26;18.23;;;10.73;;
4011;SDS011;2020;48.682;9.024;2022-12-18T04:02:53;22.97;;;15.00;;
4011;SDS011;2020;48.682;9.024;2022-12-18T04:05:21;23.17;;;13.27;;
4011;SDS011;2020;48.682;9.024;2022-12-18T04:07:49;31.37;;;15.20;;
4011;SDS011;2020;48.682;9.024;2022-12-18T04:10:16;25.13;;;13.17;;
4011;SDS011;2020;48.682;9.024;2022-12-18T04:12:41;18.20;;;12.50;;
4011;SDS011;2020;48.682;9.024;2022-12-18T04:15:07;24.90;;;15.23;;
4011;SDS011;2020;48.682;9.024;2022-12-18T04:17:34;18.67;;;12.00;;
4011;SDS011;2020;48.682;9.024;2022-12-18T04:19:59;22.93;;;14.50;;
4011;SDS011;2020;48.682;9.024;2022-12-18T04:22:24;20.40;;;13.17;;
4011;SDS011;2020;48.682;9.024;2022-12-18T04:24:49;28.50;;;13.77;;
4011;SDS011;2020;48.682;9.024;2022-12-18T04:27:15;21.13;;;12.07;;
4011;SDS011;2020;48.682;9.024;2022-12-18T04:29:40;18.23;;;12.70;;
4011;SDS011;2020;48.682;9.024;2022-12-18T04:32:05;23.70;;;12.77;;
4011;SDS011;2020;48.682;9.024;2022-12-18T04:34:31;25.27;;;14.60;;
4011;SDS011;2020;48.682;9.024;2022-12-18T04:36:57;18.77;;;11.37;;
4011;SDS011;2020;48.682;9.024;2022-12-18T04:39:22;21.87;;;12.67;;
4011;SDS011;2020;48.682;9.024;2022-12-18T04:41:47;25.37;;;13.77;;
4011;SDS011;2020;48.682;9.024;2022-12-18T04:44:13;18.17;;;11.50;;
4011;SDS011;2020;48.682;9.024;2022-12-18T04:46:38;27.47;;;12.57;;
4011;SDS011;2020;48.682;9.024;2022-12-18T04:49:03;26.57;;;13.97;;
4011;SDS011;2020;48.682;9.024;2022-12-18T04:51:29;20.50;;;13.60;;
4011;SDS011;2020;48.682;9.024;2022-12-18T04:53:54;21.20;;;13.10;;
4011;SDS011;2020;48.682;9.024;2022-12-18T04:56:19;16.70;;;10.70;;
4011;SDS011;2020;48.682;9.024;2022-12-18T04:58:45;26.63;;;13.57;;
4011;SDS011;2020;48.682;9.024;2022-12-18T05:01:11;22.53;;;13.27;;
4011;SDS011;2020;48.682;9.024;2022-12-18T05:03:38;24.43;;;13.07;;
4011;SDS011;2020;48.682;9.024;2022-12-18T05:06:04;18.67;;;10.40;;
4011;SDS011;2020;48.682;9.024;2022-12-18T05:08:30;26.53;;;15.07;;
4011;SDS011;2020;48.682;9.024;2022-12-18T05:10:59;23.07;;;12.70;;
4011;SDS011;2020;48.682;9.024;2022-12-18T05:13:29;17.17;;;10.43;;
4011;SDS011;2020;48.682;9.024;2022-12-18T05:15:54;23.33;;;13.20;;
4011;SDS011;2020;48.682;9.024;2022-12-18T05:18:20;24.03;;;12.93;;
4011;SDS011;2020;48.682;9.024;2022-12-18T05:20:46;22.87;;;13.23;;
4011;SDS011;2020;48.682;9.024;2022-12-18T05:23:12;21.07;;;13.27;;
4011;SDS011;2020;48.682;9.024;2022-12-18T05:25:37;21.60;;;13.50;;
4011;SDS011;2020;48.682;9.024;2022-12-18T05:28:03;18.77;;;11.70;;
4011;SDS011;2020;48.682;9.024;2022-12-18T05:30:28;23.13;;;10.90;;
4011;SDS011;2020;48.682;9.024;2022-12-18T05:32:53;26.67;;;13.00;;
4011;SDS011;2020;48.682;9.024;2022-12-18T05:35:19;20.27;;;12.73;;
4011;SDS011;2020;48.682;9.024;2022-12-18T05:37:44;26.07;;;12.77;;
4011;SDS011;2020;48.682;9.024;2022-12-18T05:40:10;21.23;;;11.40;;
4011;SDS011;2020;48.682;9.024;2022-12-18T05:42:35;23.60;;;12.70;;
4011;SDS011;2020;48.682;9.024;2022-12-18T05:45:01;19.10;;;12.47;;
4011;SDS011;2020;48.682;9.024;2022-12-18T05:47:26;25.13;;;13.03;;
4011;SDS011;2020;48.682;9.024;2022-12-18T05:49:52;20.03;;;11.80;;
4011;SDS011;2020;48.682;9.024;2022-12-18T05:52:17;21.33;;;12.70;;
4011;SDS011;2020;48.682;9.024;2022-12-18T05:54:43;24.20;;;12.20;;
4011;SDS011;2020;48.682;9.024;2022-12-18T05:57:08;29.70;;;11.97;;
4011;SDS011;2020;48.682;9.024;2022-12-18T05:59:33;16.47;;;10.47;;
4011;SDS011;2020;48.682;9.024;2022-12-18T06:01:59;20.03;;;12.00;;
4011;SDS011;2020;48.682;9.024;2022-12-18T06:04:26;18.90;;;11.53;;
4011;SDS011;2020;48.682;9.024;2022-12-18T06:06:52;20.73;;;12.50;;
4011;SDS011;2020;48.682;9.024;2022-12-18T06:09:17;19.20;;;12.23;;
4011;SDS011;2020;48.682;9.024;2022-12-18T06:11:42;23.63;;;12.87;;
4011;SDS011;2020;48.682;9.024;2022-12-18T06:14:08;26.83;;;13.07;;
4011;SDS011;2020;48.682;9.024;2022-12-18T06:16:34;19.00;;;11.50;;
4011;SDS011;2020;48.682;9.024;2022-12-18T06:19:00;26.10;;;11.83;;
4011;SDS011;2020;48.682;9.024;2022-12-18T06:21:27;24.30;;;11.30;;
4011;SDS011;2020;48.682;9.024;2022-12-18T06:23:53;18.20;;;10.33;;
4011;SDS011;2020;48.682;9.024;2022-12-18T06:26:18;20.63;;;10.00;;
4011;SDS011;2020;48.682;9.024;2022-12-18T06:28:44;20.27;;;12.70;;
4011;SDS011;2020;48.682;9.024;2022-12-18T06:31:09;25.10;;;13.70;;
4011;SDS011;2020;48.682;9.024;2022-12-18T06:33:35;16.17;;;10.23;;
4011;SDS011;2020;48.682;9.024;2022-12-18T06:36:01;21.00;;;9.90;;
4011;SDS011;2020;48.682;9.024;2022-12-18T06:38:29;22.53;;;13.10;;
4011;SDS011;2020;48.682;9.024;2022-12-18T06:40:54;25.90;;;11.77;;
4011;SDS011;2020;48.682;9.024;2022-12-18T06:43:19;17.73;;;10.80;;
4011;SDS011;2020;48.682;9.024;2022-12-18T06:45:45;18.80;;;11.90;;
4011;SDS011;2020;48.682;9.024;2022-12-18T06:48:14;17.17;;;10.70;;
4011;SDS011;2020;48.682;9.024;2022-12-18T06:50:41;17.73;;;11.10;;
4011;SDS011;2020;48.682;9.024;2022-12-18T06:53:07;14.90;;;10.03;;
4011;SDS011;2020;48.682;9.024;2022-12-18T06:55:32;22.10;;;11.67;;
4011;SDS011;2020;48.682;9.024;2022-12-18T06:57:57;18.10;;;12.17;;
4011;SDS011;2020;48.682;9.024;2022-12-18T07:00:23;18.73;;;11.13;;
4011;SDS011;2020;48.682;9.024;2022-12-18T07:02:48;16.43;;;10.77;;
4011;SDS011;2020;48.682;9.024;2022-12-18T07:05:13;23.60;;;11.97;;
4011;SDS011;2020;48.682;9.024;2022-12-18T07:07:38;28.00;;;11.57;;
4011;SDS011;2020;48.682;9.024;2022-12-18T07:10:04;17.67;;;10.20;;
4011;SDS011;2020;48.682;9.024;2022-12-18T07:12:29;24.20;;;12.50;;
4011;SDS011;2020;48.682;9.024;2022-12-18T07:14:55;26.10;;;12.37;;
4011;SDS011;2020;48.682;9.024;2022-12-18T07:17:20;24.87;;;13.67;;
4011;SDS011;2020;48.682;9.024;2022-12-18T07:19:45;17.73;;;11.43;;
4011;SDS011;2020;48.682;9.024;2022-12-18T07:22:10;16.63;;;10.50;;
4011;SDS011;2020;48.682;9.024;2022-12-18T07:24:36;28.53;;;13.10;;
4011;SDS011;2020;48.682;9.024;2022-12-18T07:27:01;24.67;;;11.90;;
4011;SDS011;2020;48.682;9.024;2022-12-18T07:29:26;21.53;;;11.50;;
4011;SDS011;2020;48.682;9.024;2022-12-18T07:31:52;19.13;;;11.20;;
4011;SDS011;2020;48.682;9.024;2022-12-18T07:34:17;18.77;;;10.20;;
4011;SDS011;2020;48.682;9.024;2022-12-18T07:36:42;18.03;;;11.37;;
4011;SDS011;2020;48.682;9.024;2022-12-18T07:39:07;21.17;;;10.20;;
4011;SDS011;2020;48.682;9.024;2022-12-18T07:41:33;21.50;;;11.47;;
4011;SDS011;2020;48.682;9.024;2022-12-18T07:43:58;24.13;;;10.90;;
4011;SDS011;2020;48.682;9.024;2022-12-18T07:46:23;20.80;;;10.70;;
4011;SDS011;2020;48.682;9.024;2022-12-18T07:48:49;17.93;;;11.70;;
4011;SDS011;2020;48.682;9.024;2022-12-18T07:51:14;24.00;;;12.50;;
4011;SDS011;2020;48.682;9.024;2022-12-18T07:53:40;26.10;;;13.17;;
4011;SDS011;2020;48.682;9.024;2022-12-18T07:56:06;21.57;;;12.80;;
4011;SDS011;2020;48.682;9.024;2022-12-18T07:58:34;21.13;;;12.30;;
4011;SDS011;2020;48.682;9.024;2022-12-18T08:01:09;27.00;;;12.10;;
4011;SDS011;2020;48.682;9.024;2022-12-18T08:03:36;26.60;;;16.07;;
4011;SDS011;2020;48.682;9.024;2022-12-18T08:06:03;22.30;;;12.60;;
4011;SDS011;2020;48.682;9.024;2022-12-18T08:08:29;24.10;;;13.93;;
4011;SDS011;2020;48.682;9.024;2022-12-18T08:10:55;26.10;;;12.77;;
4011;SDS011;2020;48.682;9.024;2022-12-18T08:13:21;20.60;;;13.20;;
4011;SDS011;2020;48.682;9.024;2022-12-18T08:15:48;19.90;;;12.63;;
4011;SDS011;2020;48.682;9.024;2022-12-18T08:18:20;22.57;;;13.07;;
4011;SDS011;2020;48.682;9.024;2022-12-18T08:20:45;27.17;;;14.30;;
4011;SDS011;2020;48.682;9.024;2022-12-18T08:23:11;23.40;;;12.60;;
4011;SDS011;2020;48.682;9.024;2022-12-18T08:25:36;23.90;;;14.57;;
4011;SDS011;2020;48.682;9.024;2022-12-18T08:28:01;20.30;;;13.77;;
4011;SDS011;2020;48.682;9.024;2022-12-18T08:30:27;25.37;;;16.00;;
4011;SDS011;2020;48.682;9.024;2022-12-18T08:32:52;28.17;;;16.63;;
4011;SDS011;2020;48.682;9.024;2022-12-18T08:35:18;22.37;;;14.57;;
4011;SDS011;2020;48.682;9.024;2022-12-18T08:37:44;24.60;;;15.87;;
4011;SDS011;2020;48.682;9.024;2022-12-18T08:40:09;22.17;;;15.97;;
4011;SDS011;2020;48.682;9.024;2022-12-18T08:42:35;25.43;;;15.27;;
4011;SDS011;2020;48.682;9.024;2022-12-18T08:45:18;23.70;;;14.93;;
4011;SDS011;2020;48.682;9.024;2022-12-18T08:47:44;25.90;;;16.10;;
4011;SDS011;2020;48.682;9.024;2022-12-18T08:50:09;24.27;;;14.90;;
4011;SDS011;2020;48.682;9.024;2022-12-18T08:52:36;25.97;;;13.97;;
4011;SDS011;2020;48.682;9.024;2022-12-18T08:55:01;24.97;;;14.67;;
4011;SDS011;2020;48.682;9.024;2022-12-18T08:57:26;28.70;;;16.93;;
4011;SDS011;2020;48.682;9.024;2022-12-18T08:59:52;26.00;;;16.60;;
4011;SDS011;2020;48.682;9.024;2022-12-18T09:04:49;26.03;;;15.87;;
4011;SDS011;2020;48.682;9.024;2022-12-18T09:07:14;21.13;;;14.07;;
4011;SDS011;2020;48.682;9.024;2022-12-18T09:09:39;24.60;;;15.73;;
4011;SDS011;2020;48.682;9.024;2022-12-18T09:12:05;26.70;;;14.80;;
4011;SDS011;2020;48.682;9.024;2022-12-18T09:14:30;28.13;;;16.13;;
4011;SDS011;2020;48.682;9.024;2022-12-18T09:16:55;30.87;;;16.33;;
4011;SDS011;2020;48.682;9.024;2022-12-18T09:19:21;24.90;;;15.40;;
4011;SDS011;2020;48.682;9.024;2022-12-18T09:21:46;28.70;;;16.93;;
4011;SDS011;2020;48.682;9.024;2022-12-18T09:24:12;22.00;;;15.03;;
4011;SDS011;2020;48.682;9.024;2022-12-18T09:26:38;28.03;;;16.00;;
4011;SDS011;2020;48.682;9.024;2022-12-18T09:29:03;24.27;;;15.53;;
4011;SDS011;2020;48.682;9.024;2022-12-18T09:31:29;25.77;;;15.23;;
4011;SDS011;2020;48.682;9.024;2022-12-18T09:33:55;24.20;;;14.57;;
4011;SDS011;2020;48.682;9.024;2022-12-18T09:36:21;30.20;;;16.57;;
4011;SDS011;2020;48.682;9.024;2022-12-18T09:38:46;24.90;;;15.50;;
4011;SDS011;2020;48.682;9.024;2022-12-18T09:41:22;25.53;;;15.23;;
4011;SDS011;2020;48.682;9.024;2022-12-18T09:43:57;29.07;;;16.80;;
4011;SDS011;2020;48.682;9.024;2022-12-18T09:46:29;27.17;;;16.40;;
4011;SDS011;2020;48.682;9.024;2022-12-18T09:49:00;24.77;;;13.87;;
4011;SDS011;2020;48.682;9.024;2022-12-18T09:51:30;28.50;;;15.60;;
4011;SDS011;2020;48.682;9.024;2022-12-18T09:54:01;26.67;;;12.60;;
4011;SDS011;2020;48.682;9.024;2022-12-18T09:56:31;25.13;;;16.03;;
4011;SDS011;2020;48.682;9.024;2022-12-18T09:59:02;30.10;;;13.90;;
4011;SDS011;2020;48.682;9.024;2022-12-18T10:01:28;24.90;;;14.97;;
4011;SDS011;2020;48.682;9.024;2022-12-18T10:03:55;24.50;;;14.60;;
4011;SDS011;2020;48.682;9.024;2022-12-18T10:06:26;23.67;;;14.50;;
4011;SDS011;2020;48.682;9.024;2022-12-18T10:09:09;24.20;;;15.70;;
4011;SDS011;2020;48.682;9.024;2022-12-18T10:14:23;27.73;;;17.40;;
4011;SDS011;2020;48.682;9.024;2022-12-18T10:20:08;29.83;;;17.50;;
4011;SDS011;2020;48.682;9.024;2022-12-18T10:25:35;25.43;;;14.83;;
4011;SDS011;2020;48.682;9.024;2022-12-18T10:28:07;27.67;;;16.07;;
4011;SDS011;2020;48.682;9.024;2022-12-18T10:30:37;23.93;;;16.40;;
4011;SDS011;2020;48.682;9.024;2022-12-18T10:33:04;28.47;;;16.47;;
4011;SDS011;2020;48.682;9.024;2022-12-18T10:35:30;19.63;;;13.73;;
4011;SDS011;2020;48.682;9.024;2022-12-18T10:43:30;23.10;;;14.60;;
4011;SDS011;2020;48.682;9.024;2022-12-18T10:46:00;22.53;;;14.20;;
4011;SDS011;2020;48.682;9.024;2022-12-18T10:48:33;27.53;;;14.70;;
4011;SDS011;2020;48.682;9.024;2022-12-18T10:51:01;30.57;;;17.40;;
4011;SDS011;2020;48.682;9.024;2022-12-18T10:53:29;24.43;;;14.70;;
4011;SDS011;2020;48.682;9.024;2022-12-18T10:55:56;33.63;;;16.20;;
4011;SDS011;2020;48.682;9.024;2022-12-18T11:01:10;23.57;;;14.50;;
4011;SDS011;2020;48.682;9.024;2022-12-18T11:03:43;28.47;;;15.47;;
4011;SDS011;2020;48.682;9.024;2022-12-18T11:06:11;29.57;;;16.27;;
4011;SDS011;2020;48.682;9.024;2022-12-18T11:08:38;24.77;;;13.97;;
4011;SDS011;2020;48.682;9.024;2022-12-18T11:11:16;27.50;;;15.30;;
4011;SDS011;2020;48.682;9.024;2022-12-18T11:13:55;27.43;;;15.20;;
4011;SDS011;2020;48.682;9.024;2022-12-18T11:16:25;26.93;;;14.23;;
4011;SDS011;2020;48.682;9.024;2022-12-18T11:18:51;33.77;;;16.30;;
4011;SDS011;2020;48.682;9.024;2022-12-18T11:21:17;22.17;;;13.23;;
4011;SDS011;2020;48.682;9.024;2022-12-18T11:23:50;25.07;;;15.60;;
4011;SDS011;2020;48.682;9.024;2022-12-18T11:26:16;31.13;;;14.37;;
4011;SDS011;2020;48.682;9.024;2022-12-18T11:28:49;21.90;;;13.13;;
4011;SDS011;2020;48.682;9.024;2022-12-18T11:33:46;26.67;;;15.20;;
4011;SDS011;2020;48.682;9.024;2022-12-18T11:36:17;30.90;;;16.50;;
4011;SDS011;2020;48.682;9.024;2022-12-18T11:38:44;31.70;;;16.57;;
4011;SDS011;2020;48.682;9.024;2022-12-18T11:41:31;23.37;;;14.37;;
4011;SDS011;2020;48.682;9.024;2022-12-18T11:44:20;24.73;;;15.10;;
4011;SDS011;2020;48.682;9.024;2022-12-18T11:46:51;26.93;;;15.83;;
4011;SDS011;2020;48.682;9.024;2022-12-18T11:49:33;26.00;;;16.33;;
4011;SDS011;2020;48.682;9.024;2022-12-18T11:52:01;29.70;;;16.40;;
4011;SDS011;2020;48.682;9.024;2022-12-18T11:54:33;38.13;;;17.13;;
4011;SDS011;2020;48.682;9.024;2022-12-18T11:57:06;25.67;;;14.57;;
4011;SDS011;2020;48.682;9.024;2022-12-18T11:59:50;24.97;;;15.37;;
4011;SDS011;2020;48.682;9.024;2022-12-18T12:07:46;27.80;;;16.30;;
4011;SDS011;2020;48.682;9.024;2022-12-18T12:10:33;25.63;;;15.07;;
4011;SDS011;2020;48.682;9.024;2022-12-18T12:13:23;29.83;;;14.90;;
4011;SDS011;2020;48.682;9.024;2022-12-18T12:16:16;23.50;;;14.13;;
4011;SDS011;2020;48.682;9.024;2022-12-18T12:18:59;29.13;;;15.80;;
4011;SDS011;2020;48.682;9.024;2022-12-18T12:21:39;23.30;;;13.30;;
4011;SDS011;2020;48.682;9.024;2022-12-18T12:30:00;23.63;;;14.93;;
4011;SDS011;2020;48.682;9.024;2022-12-18T12:40:44;27.53;;;14.77;;
4011;SDS011;2020;48.682;9.024;2022-12-18T12:46:11;36.17;;;17.07;;
4011;SDS011;2020;48.682;9.024;2022-12-18T12:48:50;28.97;;;15.23;;
4011;SDS011;2020;48.682;9.024;2022-12-18T12:53:44;35.40;;;16.03;;
4011;SDS011;2020;48.682;9.024;2022-12-18T12:56:11;29.30;;;15.87;;
4011;SDS011;2020;48.682;9.024;2022-12-18T13:04:06;28.53;;;15.50;;
4011;SDS011;2020;48.682;9.024;2022-12-18T13:07:03;28.30;;;16.20;;
4011;SDS011;2020;48.682;9.024;2022-12-18T13:09:33;27.20;;;16.70;;
4011;SDS011;2020;48.682;9.024;2022-12-18T13:12:03;29.37;;;15.60;;
4011;SDS011;2020;48.682;9.024;2022-12-18T13:14:54;28.93;;;16.50;;
4011;SDS011;2020;48.682;9.024;2022-12-18T13:17:38;33.83;;;16.83;;
4011;SDS011;2020;48.682;9.024;2022-12-18T13:22:37;23.37;;;13.90;;
4011;SDS011;2020;48.682;9.024;2022-12-18T13:28:09;24.90;;;14.53;;
4011;SDS011;2020;48.682;9.024;2022-12-18T13:45:45;32.27;;;16.47;;
4011;SDS011;2020;48.682;9.024;2022-12-18T13:48:16;30.57;;;17.80;;
4011;SDS011;2020;48.682;9.024;2022-12-18T13:50:47;32.50;;;17.43;;
4011;SDS011;2020;48.682;9.024;2022-12-18T13:53:17;36.33;;;18.33;;
4011;SDS011;2020;48.682;9.024;2022-12-18T13:55:46;37.60;;;17.97;;
4011;SDS011;2020;48.682;9.024;2022-12-18T13:58:13;34.47;;;17.57;;
4011;SDS011;2020;48.682;9.024;2022-12-18T14:00:42;32.13;;;16.97;;
4011;SDS011;2020;48.682;9.024;2022-12-18T14:03:19;28.57;;;16.83;;
4011;SDS011;2020;48.682;9.024;2022-12-18T14:06:10;36.30;;;19.37;;
4011;SDS011;2020;48.682;9.024;2022-12-18T14:08:38;35.37;;;17.70;;
4011;SDS011;2020;48.682;9.024;2022-12-18T14:11:05;37.50;;;16.87;;
4011;SDS011;2020;48.682;9.024;2022-12-18T14:13:43;35.50;;;18.67;;
4011;SDS011;2020;48.682;9.024;2022-12-18T14:16:11;34.50;;;17.70;;
4011;SDS011;2020;48.682;9.024;2022-12-18T14:18:48;33.83;;;19.10;;
4011;SDS011;2020;48.682;9.024;2022-12-18T14:21:21;39.83;;;17.40;;
4011;SDS011;2020;48.682;9.024;2022-12-18T14:23:48;36.90;;;16.80;;
4011;SDS011;2020;48.682;9.024;2022-12-18T14:26:24;32.70;;;16.93;;
4011;SDS011;2020;48.682;9.024;2022-12-18T14:28:58;36.40;;;18.07;;
4011;SDS011;2020;48.682;9.024;2022-12-18T14:31:28;31.93;;;18.03;;
4011;SDS011;2020;48.682;9.024;2022-12-18T14:33:55;33.90;;;17.37;;
4011;SDS011;2020;48.682;9.024;2022-12-18T14:36:24;41.63;;;20.37;;
4011;SDS011;2020;48.682;9.024;2022-12-18T14:38:53;29.70;;;17.23;;
4011;SDS011;2020;48.682;9.024;2022-12-18T14:41:20;34.40;;;18.80;;
4011;SDS011;2020;48.682;9.024;2022-12-18T14:43:48;40.93;;;21.63;;
4011;SDS011;2020;48.682;9.024;2022-12-18T14:49:04;35.87;;;18.67;;
4011;SDS011;2020;48.682;9.024;2022-12-18T14:51:42;36.60;;;18.73;;
4011;SDS011;2020;48.682;9.024;2022-12-18T14:54:17;41.53;;;19.07;;
4011;SDS011;2020;48.682;9.024;2022-12-18T14:56:47;35.57;;;18.93;;
4011;SDS011;2020;48.682;9.024;2022-12-18T14:59:15;33.03;;;20.40;;
4011;SDS011;2020;48.682;9.024;2022-12-18T15:01:45;39.43;;;18.53;;
4011;SDS011;2020;48.682;9.024;2022-12-18T15:04:23;35.90;;;18.07;;
4011;SDS011;2020;48.682;9.024;2022-12-18T15:07:16;39.30;;;18.73;;
4011;SDS011;2020;48.682;9.024;2022-12-18T15:09:44;38.73;;;21.80;;
4011;SDS011;2020;48.682;9.024;2022-12-18T15:18:02;36.43;;;22.80;;
4011;SDS011;2020;48.682;9.024;2022-12-18T15:20:54;39.23;;;22.13;;
4011;SDS011;2020;48.682;9.024;2022-12-18T15:23:24;36.00;;;20.40;;
4011;SDS011;2020;48.682;9.024;2022-12-18T15:25:59;34.30;;;20.60;;
4011;SDS011;2020;48.682;9.024;2022-12-18T15:33:41;34.97;;;19.20;;
4011;SDS011;2020;48.682;9.024;2022-12-18T15:36:12;38.70;;;20.17;;
4011;SDS011;2020;48.682;9.024;2022-12-18T15:38:39;40.77;;;21.23;;
4011;SDS011;2020;48.682;9.024;2022-12-18T15:41:22;35.70;;;19.83;;
4011;SDS011;2020;48.682;9.024;2022-12-18T15:43:49;41.03;;;22.20;;
4011;SDS011;2020;48.682;9.024;2022-12-18T15:46:16;36.70;;;21.93;;
4011;SDS011;2020;48.682;9.024;2022-12-18T15:48:45;41.00;;;24.57;;
4011;SDS011;2020;48.682;9.024;2022-12-18T15:51:17;43.93;;;23.20;;
4011;SDS011;2020;48.682;9.024;2022-12-18T15:53:45;37.37;;;21.80;;
4011;SDS011;2020;48.682;9.024;2022-12-18T15:56:12;55.50;;;23.90;;
4011;SDS011;2020;48.682;9.024;2022-12-18T15:58:58;41.03;;;21.97;;
4011;SDS011;2020;48.682;9.024;2022-12-18T16:01:25;42.13;;;22.93;;
4011;SDS011;2020;48.682;9.024;2022-12-18T16:03:52;41.23;;;20.40;;
4011;SDS011;2020;48.682;9.024;2022-12-18T16:06:18;46.83;;;24.30;;
4011;SDS011;2020;48.682;9.024;2022-12-18T16:08:43;37.73;;;23.10;;
4011;SDS011;2020;48.682;9.024;2022-12-18T16:11:22;40.40;;;23.73;;
4011;SDS011;2020;48.682;9.024;2022-12-18T16:16:46;38.77;;;23.03;;
4011;SDS011;2020;48.682;9.024;2022-12-18T16:19:13;43.83;;;24.00;;
4011;SDS011;2020;48.682;9.024;2022-12-18T16:21:38;49.20;;;25.03;;
4011;SDS011;2020;48.682;9.024;2022-12-18T16:24:04;40.83;;;23.00;;
4011;SDS011;2020;48.682;9.024;2022-12-18T16:26:30;49.70;;;24.20;;
4011;SDS011;2020;48.682;9.024;2022-12-18T16:28:55;33.00;;;20.23;;
4011;SDS011;2020;48.682;9.024;2022-12-18T16:31:20;44.83;;;22.53;;
4011;SDS011;2020;48.682;9.024;2022-12-18T16:33:45;32.73;;;21.17;;
4011;SDS011;2020;48.682;9.024;2022-12-18T16:36:11;49.23;;;22.70;;
4011;SDS011;2020;48.682;9.024;2022-12-18T16:38:36;32.57;;;20.67;;
4011;SDS011;2020;48.682;9.024;2022-12-18T16:41:02;48.27;;;23.20;;
4011;SDS011;2020;48.682;9.024;2022-12-18T16:44:03;47.73;;;23.80;;
4011;SDS011;2020;48.682;9.024;2022-12-18T16:46:28;40.63;;;21.37;;
4011;SDS011;2020;48.682;9.024;2022-12-18T16:48:56;48.73;;;23.10;;
4011;SDS011;2020;48.682;9.024;2022-12-18T16:51:23;39.37;;;22.33;;
4011;SDS011;2020;48.682;9.024;2022-12-18T16:53:48;35.33;;;21.33;;
4011;SDS011;2020;48.682;9.024;2022-12-18T16:56:13;40.23;;;22.83;;
4011;SDS011;2020;48.682;9.024;2022-12-18T16:58:38;45.60;;;24.13;;